Terminal Aerodrome Forecast
Issued by NWS New Orleans/Baton Rouge, LA

Home | Current Version | Previous Version | Text Only | Print | Product List | Glossary On
Versions: 1 2 3 4 5 6 7 8 9 10 11 12 13
644
FTUS44 KLIX 032348
TAFBTR
TAF
KBTR 032348Z 0400/0424 10012KT P6SM -RA OVC025
     FM040200 10012KT P6SM -RA OVC020
      TEMPO 0403/0406 4SM -RA OVC010
     FM040600 11009KT 6SM -RA BR OVC008
      TEMPO 0406/0410 3SM SHRA BR
     FM041100 07005KT 3SM -RA BR OVC004
     FM041800 34004KT 3SM SHRA OVC008=

USA.gov is the U.S. government's official web portal to all federal, state and local government web resources and services.